CSTMX LEVX-LPCS
Flight info
| Callsign | CSTMX |
|---|---|
| Flight time | 0h 35m |
| Altitude | 33000 |
| Route | PRT DCT PEKOV DCT CAS |
| Aircraft | B737/M-SDE2E3FGHIRWXY/LB1 |
Departure
| Time | 2026-04-14 12:14 |
|---|---|
| Airport | Vigo Airport (LEVX) |
Arrival
| Time | 2026-04-14 12:50 |
|---|---|
| Airport | Cascais Airport (LPCS) |
| Time | Latitude | Longitude | Altitude | Speed | Heading |
|---|---|---|---|---|---|
| 2026-04-14 12:02 | 42.22349 | -8.63227 | 862 ft | 0 kts | 102° |
| 2026-04-14 12:09 | 42.22349 | -8.63224 | 862 ft | 2 kts | 102° |
| 2026-04-14 12:09 | 42.22376 | -8.63124 | 856 ft | 19 kts | 31° |
| 2026-04-14 12:09 | 42.22511 | -8.63079 | 847 ft | 20 kts | 10° |
| 2026-04-14 12:09 | 42.22655 | -8.63025 | 852 ft | 22 kts | 36° |
| 2026-04-14 12:10 | 42.22696 | -8.62986 | 851 ft | 0 kts | 38° |
| 2026-04-14 12:11 | 42.22698 | -8.62984 | 851 ft | 4 kts | 38° |
| 2026-04-14 12:12 | 42.22807 | -8.62868 | 851 ft | 29 kts | 39° |
| 2026-04-14 12:12 | 42.22982 | -8.62743 | 852 ft | 28 kts | 13° |
| 2026-04-14 12:12 | 42.23164 | -8.62687 | 853 ft | 26 kts | 13° |
| 2026-04-14 12:12 | 42.23345 | -8.62635 | 850 ft | 31 kts | 12° |
| 2026-04-14 12:13 | 42.23583 | -8.62574 | 841 ft | 38 kts | 10° |
| 2026-04-14 12:13 | 42.23843 | -8.62516 | 841 ft | 26 kts | 4° |
| 2026-04-14 12:13 | 42.23879 | -8.62502 | 832 ft | 1 kts | 75° |
| 2026-04-14 12:13 | 42.23862 | -8.62498 | 832 ft | 9 kts | 187° |
| 2026-04-14 12:14 | 42.23435 | -8.62617 | 847 ft | 129 kts | 192° |
| 2026-04-14 12:14 | 42.22243 | -8.62890 | 1654 ft | 175 kts | 186° |
| 2026-04-14 12:14 | 42.21084 | -8.63057 | 3906 ft | 172 kts | 187° |
| 2026-04-14 12:14 | 42.19782 | -8.63200 | 4469 ft | 213 kts | 186° |
| 2026-04-14 12:15 | 42.18158 | -8.63416 | 4699 ft | 253 kts | 185° |
| 2026-04-14 12:15 | 42.16346 | -8.63493 | 4964 ft | 256 kts | 182° |
| 2026-04-14 12:15 | 42.14650 | -8.63529 | 5154 ft | 236 kts | 183° |
| 2026-04-14 12:15 | 42.12971 | -8.63575 | 5239 ft | 252 kts | 183° |
| 2026-04-14 12:16 | 42.11071 | -8.63647 | 5849 ft | 287 kts | 183° |
| 2026-04-14 12:16 | 42.09081 | -8.63734 | 7436 ft | 289 kts | 184° |
| 2026-04-14 12:16 | 42.07037 | -8.63834 | 8771 ft | 300 kts | 184° |
| 2026-04-14 12:16 | 42.04913 | -8.63948 | 10086 ft | 310 kts | 185° |
| 2026-04-14 12:17 | 42.02758 | -8.64071 | 11281 ft | 319 kts | 185° |
| 2026-04-14 12:17 | 42.00512 | -8.64205 | 12550 ft | 328 kts | 185° |
| 2026-04-14 12:17 | 41.98208 | -8.64345 | 13821 ft | 336 kts | 184° |
| 2026-04-14 12:17 | 41.95843 | -8.64492 | 14940 ft | 344 kts | 185° |
| 2026-04-14 12:18 | 41.93427 | -8.64643 | 16073 ft | 351 kts | 185° |
| 2026-04-14 12:18 | 41.90965 | -8.64798 | 17215 ft | 358 kts | 185° |
| 2026-04-14 12:18 | 41.88449 | -8.64957 | 18324 ft | 366 kts | 185° |
| 2026-04-14 12:18 | 41.85882 | -8.65120 | 19299 ft | 373 kts | 185° |
| 2026-04-14 12:19 | 41.83304 | -8.65284 | 20262 ft | 379 kts | 186° |
| 2026-04-14 12:19 | 41.80648 | -8.65452 | 21243 ft | 385 kts | 186° |
| 2026-04-14 12:19 | 41.77952 | -8.65623 | 22201 ft | 392 kts | 186° |
| 2026-04-14 12:19 | 41.75203 | -8.65798 | 23115 ft | 399 kts | 186° |
| 2026-04-14 12:20 | 41.72408 | -8.65975 | 24020 ft | 405 kts | 186° |
| 2026-04-14 12:20 | 41.69576 | -8.66153 | 24821 ft | 410 kts | 186° |
| 2026-04-14 12:20 | 41.66711 | -8.66334 | 25649 ft | 414 kts | 186° |
| 2026-04-14 12:20 | 41.63815 | -8.66515 | 26454 ft | 419 kts | 186° |
| 2026-04-14 12:21 | 41.60889 | -8.66699 | 27216 ft | 424 kts | 186° |
| 2026-04-14 12:21 | 41.57965 | -8.66883 | 27959 ft | 429 kts | 186° |
| 2026-04-14 12:21 | 41.56947 | -8.66948 | 28209 ft | 431 kts | 186° |
| 2026-04-14 12:21 | 41.54353 | -8.67111 | 28846 ft | 435 kts | 186° |
| 2026-04-14 12:22 | 41.51313 | -8.67302 | 29553 ft | 440 kts | 186° |
| 2026-04-14 12:22 | 41.48244 | -8.67494 | 30249 ft | 444 kts | 186° |
| 2026-04-14 12:22 | 41.45141 | -8.67689 | 30837 ft | 449 kts | 186° |
| 2026-04-14 12:22 | 41.42007 | -8.67884 | 31423 ft | 452 kts | 186° |
| 2026-04-14 12:23 | 41.38831 | -8.68083 | 31707 ft | 463 kts | 186° |
| 2026-04-14 12:23 | 41.35623 | -8.68285 | 31921 ft | 473 kts | 186° |
| 2026-04-14 12:23 | 41.32310 | -8.68491 | 32193 ft | 480 kts | 186° |
| 2026-04-14 12:23 | 41.28960 | -8.68711 | 32555 ft | 483 kts | 187° |
| 2026-04-14 12:24 | 41.25638 | -8.69303 | 33022 ft | 479 kts | 196° |
| 2026-04-14 12:24 | 41.22431 | -8.70424 | 33275 ft | 478 kts | 199° |
| 2026-04-14 12:24 | 41.16065 | -8.72903 | 33256 ft | 475 kts | 200° |
| 2026-04-14 12:25 | 41.09785 | -8.75359 | 33270 ft | 473 kts | 200° |
| 2026-04-14 12:25 | 41.03457 | -8.77769 | 33291 ft | 473 kts | 199° |
| 2026-04-14 12:26 | 40.97119 | -8.80143 | 33287 ft | 473 kts | 199° |
| 2026-04-14 12:26 | 40.90784 | -8.82508 | 33291 ft | 473 kts | 199° |
| 2026-04-14 12:27 | 40.84442 | -8.84871 | 33289 ft | 474 kts | 199° |
| 2026-04-14 12:27 | 40.78134 | -8.87219 | 33285 ft | 475 kts | 199° |
| 2026-04-14 12:28 | 40.71779 | -8.89580 | 33280 ft | 475 kts | 199° |
| 2026-04-14 12:28 | 40.65420 | -8.91937 | 33282 ft | 475 kts | 199° |
| 2026-04-14 12:29 | 40.59062 | -8.94290 | 33281 ft | 475 kts | 199° |
| 2026-04-14 12:29 | 40.52745 | -8.96622 | 33279 ft | 475 kts | 199° |
| 2026-04-14 12:30 | 40.46385 | -8.98967 | 33285 ft | 475 kts | 199° |
| 2026-04-14 12:30 | 40.40026 | -9.01306 | 33282 ft | 475 kts | 199° |
| 2026-04-14 12:31 | 40.33662 | -9.03642 | 33283 ft | 475 kts | 199° |
| 2026-04-14 12:31 | 40.27340 | -9.05958 | 33289 ft | 475 kts | 199° |
| 2026-04-14 12:32 | 40.20989 | -9.08278 | 33288 ft | 475 kts | 199° |
| 2026-04-14 12:32 | 40.14625 | -9.10600 | 33289 ft | 475 kts | 199° |
| 2026-04-14 12:33 | 40.08270 | -9.12917 | 33287 ft | 475 kts | 199° |
| 2026-04-14 12:33 | 40.02023 | -9.15189 | 33288 ft | 475 kts | 199° |
| 2026-04-14 12:34 | 39.95656 | -9.17500 | 33290 ft | 475 kts | 199° |
| 2026-04-14 12:34 | 39.89292 | -9.19805 | 33294 ft | 475 kts | 199° |
| 2026-04-14 12:35 | 39.82925 | -9.22106 | 33295 ft | 475 kts | 199° |
| 2026-04-14 12:35 | 39.76603 | -9.24387 | 33288 ft | 475 kts | 199° |
| 2026-04-14 12:36 | 39.70237 | -9.26679 | 33287 ft | 475 kts | 199° |
| 2026-04-14 12:36 | 39.63872 | -9.28967 | 33291 ft | 475 kts | 199° |
| 2026-04-14 12:37 | 39.57536 | -9.31238 | 33118 ft | 463 kts | 199° |
| 2026-04-14 12:37 | 39.54459 | -9.32337 | 32306 ft | 457 kts | 199° |
| 2026-04-14 12:37 | 39.51426 | -9.33424 | 31195 ft | 460 kts | 199° |
| 2026-04-14 12:38 | 39.45230 | -9.35644 | 28706 ft | 462 kts | 198° |
| 2026-04-14 12:38 | 39.42135 | -9.36748 | 27484 ft | 461 kts | 198° |
| 2026-04-14 12:38 | 39.39039 | -9.37781 | 26339 ft | 459 kts | 197° |
| 2026-04-14 12:39 | 39.35946 | -9.38731 | 25310 ft | 454 kts | 196° |
| 2026-04-14 12:39 | 39.32892 | -9.39649 | 24417 ft | 447 kts | 196° |
| 2026-04-14 12:39 | 39.29881 | -9.40547 | 23467 ft | 441 kts | 195° |
| 2026-04-14 12:39 | 39.26951 | -9.41417 | 22469 ft | 435 kts | 195° |
| 2026-04-14 12:40 | 39.24026 | -9.42286 | 21530 ft | 428 kts | 195° |
| 2026-04-14 12:40 | 39.21147 | -9.43141 | 20613 ft | 421 kts | 195° |
| 2026-04-14 12:40 | 39.18311 | -9.43985 | 19729 ft | 416 kts | 195° |
| 2026-04-14 12:40 | 39.15512 | -9.44821 | 18851 ft | 410 kts | 195° |
| 2026-04-14 12:41 | 39.12748 | -9.45649 | 17899 ft | 405 kts | 195° |
| 2026-04-14 12:41 | 39.10065 | -9.46458 | 17000 ft | 399 kts | 195° |
| 2026-04-14 12:41 | 39.07388 | -9.47268 | 16126 ft | 393 kts | 195° |
| 2026-04-14 12:41 | 39.04783 | -9.48061 | 15279 ft | 387 kts | 195° |
| 2026-04-14 12:42 | 39.02183 | -9.48856 | 14447 ft | 382 kts | 195° |
| 2026-04-14 12:42 | 38.99614 | -9.49647 | 13570 ft | 377 kts | 195° |
| 2026-04-14 12:42 | 38.97087 | -9.50433 | 12701 ft | 371 kts | 195° |
| 2026-04-14 12:42 | 38.94602 | -9.51217 | 11866 ft | 365 kts | 195° |
| 2026-04-14 12:43 | 38.92160 | -9.52001 | 11041 ft | 359 kts | 195° |
| 2026-04-14 12:43 | 38.89757 | -9.52789 | 10236 ft | 354 kts | 195° |
| 2026-04-14 12:43 | 38.87386 | -9.53577 | 9361 ft | 349 kts | 195° |
| 2026-04-14 12:43 | 38.85057 | -9.54359 | 8525 ft | 343 kts | 195° |
| 2026-04-14 12:44 | 38.82802 | -9.55123 | 7762 ft | 335 kts | 195° |
| 2026-04-14 12:44 | 38.80658 | -9.55855 | 7531 ft | 302 kts | 195° |
| 2026-04-14 12:44 | 38.78692 | -9.56260 | 7313 ft | 275 kts | 175° |
| 2026-04-14 12:45 | 38.75349 | -9.55019 | 7052 ft | 226 kts | 161° |
| 2026-04-14 12:45 | 38.73896 | -9.54362 | 6687 ft | 219 kts | 161° |
| 2026-04-14 12:45 | 38.72478 | -9.53716 | 6139 ft | 214 kts | 161° |
| 2026-04-14 12:45 | 38.71125 | -9.52962 | 5455 ft | 213 kts | 143° |
| 2026-04-14 12:46 | 38.70312 | -9.51445 | 4797 ft | 211 kts | 112° |
| 2026-04-14 12:46 | 38.69750 | -9.49724 | 4151 ft | 208 kts | 112° |
| 2026-04-14 12:46 | 38.69179 | -9.48036 | 3560 ft | 206 kts | 112° |
| 2026-04-14 12:46 | 38.68613 | -9.46388 | 2973 ft | 198 kts | 112° |
| 2026-04-14 12:47 | 38.68414 | -9.44737 | 2484 ft | 181 kts | 76° |
| 2026-04-14 12:47 | 38.68663 | -9.43227 | 2197 ft | 165 kts | 76° |
| 2026-04-14 12:47 | 38.68859 | -9.41906 | 2025 ft | 142 kts | 76° |
| 2026-04-14 12:47 | 38.69032 | -9.40735 | 1776 ft | 121 kts | 76° |
| 2026-04-14 12:48 | 38.69166 | -9.39736 | 1635 ft | 120 kts | 78° |
| 2026-04-14 12:48 | 38.69279 | -9.38659 | 1480 ft | 125 kts | 81° |
| 2026-04-14 12:48 | 38.69380 | -9.37577 | 1430 ft | 120 kts | 79° |
| 2026-04-14 12:48 | 38.69520 | -9.36516 | 1162 ft | 119 kts | 69° |
| 2026-04-14 12:49 | 38.70031 | -9.35707 | 909 ft | 120 kts | 30° |
| 2026-04-14 12:49 | 38.70775 | -9.35259 | 668 ft | 116 kts | 16° |
| 2026-04-14 12:49 | 38.71539 | -9.35177 | 382 ft | 108 kts | 344° |
| 2026-04-14 12:49 | 38.72206 | -9.35408 | 308 ft | 86 kts | 345° |
| 2026-04-14 12:50 | 38.72516 | -9.35521 | 317 ft | 22 kts | 341° |
| 2026-04-14 12:50 | 38.72530 | -9.35663 | 318 ft | 6 kts | 285° |
| 2026-04-14 12:50 | 38.72521 | -9.35725 | 315 ft | 6 kts | 226° |
| 2026-04-14 12:51 | 38.72483 | -9.35717 | 314 ft | 7 kts | 165° |
| 2026-04-14 12:51 | 38.72464 | -9.35671 | 314 ft | 1 kts | 73° |
| 2026-04-14 12:51 | 38.72465 | -9.35667 | 314 ft | 0 kts | 72° |
| 2026-04-14 12:51 | 38.72465 | -9.35666 | 314 ft | 0 kts | 72° |